sensor_id;sensor_type;location;lat;lon;timestamp;pressure;altitude;pressure_sealevel;temperature;humidity
68634;BME280;55625;47.072;22.192;2023-04-01T00:00:58;98427.88;;;10.20;100.00
68634;BME280;55625;47.072;22.192;2023-04-01T00:03:25;98429.88;;;10.20;100.00
68634;BME280;55625;47.072;22.192;2023-04-01T00:05:54;98432.44;;;10.18;100.00
68634;BME280;55625;47.072;22.192;2023-04-01T00:08:20;98424.69;;;10.18;100.00
68634;BME280;55625;47.072;22.192;2023-04-01T00:10:46;98420.31;;;10.17;100.00
68634;BME280;55625;47.072;22.192;2023-04-01T00:13:12;98414.34;;;10.15;100.00
68634;BME280;55625;47.072;22.192;2023-04-01T00:15:41;98407.59;;;10.13;100.00
68634;BME280;55625;47.072;22.192;2023-04-01T00:18:07;98406.59;;;10.16;100.00
68634;BME280;55625;47.072;22.192;2023-04-01T00:20:33;98391.34;;;10.13;100.00
68634;BME280;55625;47.072;22.192;2023-04-01T00:22:59;98385.38;;;10.11;100.00
68634;BME280;55625;47.072;22.192;2023-04-01T00:25:25;98379.72;;;10.11;100.00
68634;BME280;55625;47.072;22.192;2023-04-01T00:27:50;98375.00;;;10.08;100.00
68634;BME280;55625;47.072;22.192;2023-04-01T00:30:17;98377.97;;;10.14;100.00
68634;BME280;55625;47.072;22.192;2023-04-01T00:32:43;98373.41;;;10.07;100.00
68634;BME280;55625;47.072;22.192;2023-04-01T00:35:09;98375.66;;;10.03;100.00
68634;BME280;55625;47.072;22.192;2023-04-01T00:37:37;98371.75;;;10.01;100.00
68634;BME280;55625;47.072;22.192;2023-04-01T00:40:06;98381.63;;;10.05;100.00
68634;BME280;55625;47.072;22.192;2023-04-01T00:42:32;98376.63;;;10.00;100.00
68634;BME280;55625;47.072;22.192;2023-04-01T00:44:58;98381.22;;;9.98;100.00
68634;BME280;55625;47.072;22.192;2023-04-01T00:47:44;98385.63;;;9.99;100.00
68634;BME280;55625;47.072;22.192;2023-04-01T00:50:10;98376.81;;;9.96;100.00
68634;BME280;55625;47.072;22.192;2023-04-01T00:52:36;98377.13;;;9.99;100.00
68634;BME280;55625;47.072;22.192;2023-04-01T00:55:05;98384.16;;;10.03;100.00
68634;BME280;55625;47.072;22.192;2023-04-01T00:57:35;98379.47;;;10.00;100.00
68634;BME280;55625;47.072;22.192;2023-04-01T01:00:06;98379.16;;;9.98;100.00
68634;BME280;55625;47.072;22.192;2023-04-01T01:02:35;98379.28;;;10.04;100.00
68634;BME280;55625;47.072;22.192;2023-04-01T01:05:01;98367.94;;;10.04;100.00
68634;BME280;55625;47.072;22.192;2023-04-01T01:10:35;98362.66;;;9.96;100.00
68634;BME280;55625;47.072;22.192;2023-04-01T01:13:11;98370.84;;;9.94;100.00
68634;BME280;55625;47.072;22.192;2023-04-01T01:16:30;98363.84;;;10.05;100.00
68634;BME280;55625;47.072;22.192;2023-04-01T01:19:17;98361.06;;;9.95;100.00
68634;BME280;55625;47.072;22.192;2023-04-01T01:22:34;98355.09;;;9.93;100.00
68634;BME280;55625;47.072;22.192;2023-04-01T01:31:23;98347.03;;;10.01;100.00
68634;BME280;55625;47.072;22.192;2023-04-01T01:36:41;98348.59;;;10.02;100.00
68634;BME280;55625;47.072;22.192;2023-04-01T01:39:11;98346.72;;;9.99;100.00
68634;BME280;55625;47.072;22.192;2023-04-01T01:41:38;98348.59;;;10.02;100.00
68634;BME280;55625;47.072;22.192;2023-04-01T01:44:08;98343.09;;;9.99;100.00
68634;BME280;55625;47.072;22.192;2023-04-01T01:46:37;98335.69;;;10.01;100.00
68634;BME280;55625;47.072;22.192;2023-04-01T01:49:05;98339.97;;;9.96;100.00
68634;BME280;55625;47.072;22.192;2023-04-01T01:51:32;98340.56;;;10.01;100.00
68634;BME280;55625;47.072;22.192;2023-04-01T01:53:59;98344.66;;;10.00;100.00
68634;BME280;55625;47.072;22.192;2023-04-01T01:56:27;98339.50;;;9.98;100.00
68634;BME280;55625;47.072;22.192;2023-04-01T01:59:02;98335.88;;;9.98;100.00
68634;BME280;55625;47.072;22.192;2023-04-01T02:01:32;98342.03;;;9.96;100.00
68634;BME280;55625;47.072;22.192;2023-04-01T02:04:01;98346.13;;;9.95;100.00
68634;BME280;55625;47.072;22.192;2023-04-01T02:06:31;98349.19;;;10.06;100.00
68634;BME280;55625;47.072;22.192;2023-04-01T02:09:02;98346.66;;;10.08;100.00
68634;BME280;55625;47.072;22.192;2023-04-01T02:11:41;98345.75;;;10.02;100.00
68634;BME280;55625;47.072;22.192;2023-04-01T02:14:23;98348.41;;;10.06;100.00
68634;BME280;55625;47.072;22.192;2023-04-01T02:17:02;98343.50;;;10.06;100.00
68634;BME280;55625;47.072;22.192;2023-04-01T02:19:43;98351.19;;;10.15;100.00
68634;BME280;55625;47.072;22.192;2023-04-01T02:22:16;98350.59;;;10.11;100.00
68634;BME280;55625;47.072;22.192;2023-04-01T02:24:43;98346.84;;;10.05;100.00
68634;BME280;55625;47.072;22.192;2023-04-01T02:27:11;98352.78;;;10.07;100.00
68634;BME280;55625;47.072;22.192;2023-04-01T02:29:38;98349.84;;;10.01;100.00
68634;BME280;55625;47.072;22.192;2023-04-01T02:32:06;98348.22;;;10.09;100.00
68634;BME280;55625;47.072;22.192;2023-04-01T02:34:33;98350.09;;;10.12;100.00
68634;BME280;55625;47.072;22.192;2023-04-01T02:36:59;98354.50;;;10.13;100.00
68634;BME280;55625;47.072;22.192;2023-04-01T02:39:25;98350.16;;;10.03;100.00
68634;BME280;55625;47.072;22.192;2023-04-01T02:41:52;98354.25;;;10.02;100.00
68634;BME280;55625;47.072;22.192;2023-04-01T02:44:18;98350.41;;;10.14;100.00
68634;BME280;55625;47.072;22.192;2023-04-01T02:46:44;98340.88;;;10.03;100.00
68634;BME280;55625;47.072;22.192;2023-04-01T02:49:11;98345.63;;;9.96;100.00
68634;BME280;55625;47.072;22.192;2023-04-01T02:51:37;98337.91;;;9.97;100.00
68634;BME280;55625;47.072;22.192;2023-04-01T02:54:03;98329.00;;;9.89;100.00
68634;BME280;55625;47.072;22.192;2023-04-01T02:56:29;98340.94;;;9.93;100.00
68634;BME280;55625;47.072;22.192;2023-04-01T02:58:56;98336.47;;;10.02;100.00
68634;BME280;55625;47.072;22.192;2023-04-01T03:01:22;98337.25;;;10.02;100.00
68634;BME280;55625;47.072;22.192;2023-04-01T03:03:48;98342.50;;;9.94;100.00
68634;BME280;55625;47.072;22.192;2023-04-01T03:06:15;98348.84;;;9.89;100.00
68634;BME280;55625;47.072;22.192;2023-04-01T03:08:42;98344.44;;;9.88;100.00
68634;BME280;55625;47.072;22.192;2023-04-01T03:11:10;98350.72;;;9.92;100.00
68634;BME280;55625;47.072;22.192;2023-04-01T03:13:36;98351.19;;;9.91;100.00
68634;BME280;55625;47.072;22.192;2023-04-01T03:16:03;98346.97;;;9.86;100.00
68634;BME280;55625;47.072;22.192;2023-04-01T03:18:29;98341.50;;;9.83;100.00
68634;BME280;55625;47.072;22.192;2023-04-01T03:20:55;98350.28;;;9.85;100.00
68634;BME280;55625;47.072;22.192;2023-04-01T03:23:21;98354.94;;;9.97;100.00
68634;BME280;55625;47.072;22.192;2023-04-01T03:25:47;98350.13;;;9.88;100.00
68634;BME280;55625;47.072;22.192;2023-04-01T03:28:13;98348.06;;;9.89;100.00
68634;BME280;55625;47.072;22.192;2023-04-01T03:30:40;98357.66;;;9.91;100.00
68634;BME280;55625;47.072;22.192;2023-04-01T03:33:06;98354.88;;;9.82;100.00
68634;BME280;55625;47.072;22.192;2023-04-01T03:35:32;98354.41;;;9.84;100.00
68634;BME280;55625;47.072;22.192;2023-04-01T03:37:58;98348.72;;;9.84;100.00
68634;BME280;55625;47.072;22.192;2023-04-01T03:40:24;98359.75;;;9.82;100.00
68634;BME280;55625;47.072;22.192;2023-04-01T03:42:52;98354.41;;;9.84;100.00
68634;BME280;55625;47.072;22.192;2023-04-01T03:45:18;98350.16;;;9.79;100.00
68634;BME280;55625;47.072;22.192;2023-04-01T03:47:44;98356.56;;;9.89;100.00
68634;BME280;55625;47.072;22.192;2023-04-01T03:50:10;98357.16;;;9.93;100.00
68634;BME280;55625;47.072;22.192;2023-04-01T03:52:36;98345.94;;;9.75;100.00
68634;BME280;55625;47.072;22.192;2023-04-01T03:55:02;98339.38;;;9.69;100.00
68634;BME280;55625;47.072;22.192;2023-04-01T03:57:30;98342.09;;;9.63;100.00
68634;BME280;55625;47.072;22.192;2023-04-01T03:59:56;98333.34;;;9.52;100.00
68634;BME280;55625;47.072;22.192;2023-04-01T04:02:22;98339.16;;;9.48;100.00
68634;BME280;55625;47.072;22.192;2023-04-01T04:04:48;98345.00;;;9.45;100.00
68634;BME280;55625;47.072;22.192;2023-04-01T04:07:14;98342.78;;;9.49;100.00
68634;BME280;55625;47.072;22.192;2023-04-01T04:09:40;98353.19;;;9.43;100.00
68634;BME280;55625;47.072;22.192;2023-04-01T04:12:06;98352.41;;;9.42;100.00
68634;BME280;55625;47.072;22.192;2023-04-01T04:14:32;98342.53;;;9.38;100.00
68634;BME280;55625;47.072;22.192;2023-04-01T04:16:58;98342.84;;;9.40;100.00
68634;BME280;55625;47.072;22.192;2023-04-01T04:19:24;98344.41;;;9.41;100.00
68634;BME280;55625;47.072;22.192;2023-04-01T04:21:49;98342.84;;;9.40;100.00
68634;BME280;55625;47.072;22.192;2023-04-01T04:24:15;98350.06;;;9.41;100.00
68634;BME280;55625;47.072;22.192;2023-04-01T04:26:41;98358.84;;;9.43;100.00
68634;BME280;55625;47.072;22.192;2023-04-01T04:29:07;98345.38;;;9.38;100.00
68634;BME280;55625;47.072;22.192;2023-04-01T04:31:33;98349.94;;;9.35;100.00
68634;BME280;55625;47.072;22.192;2023-04-01T04:34:00;98344.28;;;9.35;100.00
68634;BME280;55625;47.072;22.192;2023-04-01T04:36:27;98345.53;;;9.34;100.00
68634;BME280;55625;47.072;22.192;2023-04-01T04:38:53;98339.09;;;9.33;100.00
68634;BME280;55625;47.072;22.192;2023-04-01T04:41:19;98349.94;;;9.35;100.00
68634;BME280;55625;47.072;22.192;2023-04-01T04:43:55;98345.53;;;9.34;100.00
68634;BME280;55625;47.072;22.192;2023-04-01T04:46:22;98364.56;;;9.33;100.00
68634;BME280;55625;47.072;22.192;2023-04-01T04:48:48;98364.09;;;9.35;100.00
68634;BME280;55625;47.072;22.192;2023-04-01T04:51:16;98366.44;;;9.37;100.00
68634;BME280;55625;47.072;22.192;2023-04-01T04:53:43;98363.13;;;9.38;100.00
68634;BME280;55625;47.072;22.192;2023-04-01T04:56:09;98370.06;;;9.37;100.00
68634;BME280;55625;47.072;22.192;2023-04-01T04:58:36;98360.31;;;9.38;100.00
68634;BME280;55625;47.072;22.192;2023-04-01T05:01:11;98351.03;;;9.38;100.00
68634;BME280;55625;47.072;22.192;2023-04-01T05:03:37;98353.84;;;9.38;100.00
68634;BME280;55625;47.072;22.192;2023-04-01T05:06:05;98346.16;;;9.38;100.00
68634;BME280;55625;47.072;22.192;2023-04-01T05:08:31;98349.75;;;9.39;100.00
68634;BME280;55625;47.072;22.192;2023-04-01T05:10:58;98354.94;;;9.40;100.00
68634;BME280;55625;47.072;22.192;2023-04-01T05:13:24;98353.69;;;9.41;100.00
68634;BME280;55625;47.072;22.192;2023-04-01T05:15:50;98356.50;;;9.41;100.00
68634;BME280;55625;47.072;22.192;2023-04-01T05:18:17;98349.59;;;9.42;100.00
68634;BME280;55625;47.072;22.192;2023-04-01T05:20:52;98348.31;;;9.43;100.00
68634;BME280;55625;47.072;22.192;2023-04-01T05:23:20;98349.88;;;9.44;100.00
68634;BME280;55625;47.072;22.192;2023-04-01T05:25:48;98347.53;;;9.43;100.00
68634;BME280;55625;47.072;22.192;2023-04-01T05:28:14;98347.53;;;9.43;100.00
68634;BME280;55625;47.072;22.192;2023-04-01T05:30:42;98349.88;;;9.44;100.00
68634;BME280;55625;47.072;22.192;2023-04-01T05:33:09;98345.78;;;9.45;100.00
68634;BME280;55625;47.072;22.192;2023-04-01T05:35:35;98345.78;;;9.45;100.00
68634;BME280;55625;47.072;22.192;2023-04-01T05:38:02;98353.66;;;9.50;100.00
68634;BME280;55625;47.072;22.192;2023-04-01T05:40:29;98355.22;;;9.51;100.00
68634;BME280;55625;47.072;22.192;2023-04-01T05:42:55;98356.78;;;9.52;100.00
68634;BME280;55625;47.072;22.192;2023-04-01T05:45:21;98352.22;;;9.55;100.00
68634;BME280;55625;47.072;22.192;2023-04-01T05:47:47;98361.00;;;9.57;100.00
68634;BME280;55625;47.072;22.192;2023-04-01T05:50:13;98354.06;;;9.58;100.00
68634;BME280;55625;47.072;22.192;2023-04-01T05:52:39;98352.03;;;9.58;100.00
68634;BME280;55625;47.072;22.192;2023-04-01T05:55:06;98364.94;;;9.59;100.00
68634;BME280;55625;47.072;22.192;2023-04-01T05:57:32;98347.16;;;9.59;100.00
68634;BME280;55625;47.072;22.192;2023-04-01T05:59:58;98345.69;;;9.63;100.00
68634;BME280;55625;47.072;22.192;2023-04-01T06:02:24;98344.72;;;9.67;100.00
68634;BME280;55625;47.072;22.192;2023-04-01T06:05:02;98345.34;;;9.71;100.00
68634;BME280;55625;47.072;22.192;2023-04-01T06:07:29;98340.56;;;9.77;100.00
68634;BME280;55625;47.072;22.192;2023-04-01T06:09:55;98339.94;;;9.82;100.00
68634;BME280;55625;47.072;22.192;2023-04-01T06:12:40;98346.00;;;9.89;100.00
68634;BME280;55625;47.072;22.192;2023-04-01T06:15:43;98337.63;;;9.95;100.00
68634;BME280;55625;47.072;22.192;2023-04-01T06:30:53;98343.31;;;10.10;100.00
68634;BME280;55625;47.072;22.192;2023-04-01T06:45:54;98349.72;;;10.19;100.00
68634;BME280;55625;47.072;22.192;2023-04-01T06:52:12;98345.88;;;10.32;100.00
68634;BME280;55625;47.072;22.192;2023-04-01T06:54:53;98337.59;;;10.43;100.00
68634;BME280;55625;47.072;22.192;2023-04-01T06:57:38;98330.25;;;10.51;100.00
68634;BME280;55625;47.072;22.192;2023-04-01T07:00:24;98334.28;;;10.59;100.00
68634;BME280;55625;47.072;22.192;2023-04-01T07:05:33;98335.56;;;10.87;100.00
68634;BME280;55625;47.072;22.192;2023-04-01T07:08:05;98331.63;;;11.00;100.00
68634;BME280;55625;47.072;22.192;2023-04-01T07:11:03;98333.97;;;11.16;100.00
68634;BME280;55625;47.072;22.192;2023-04-01T07:14:37;98330.00;;;11.28;100.00
68634;BME280;55625;47.072;22.192;2023-04-01T07:16:50;98322.97;;;11.38;100.00
68634;BME280;55625;47.072;22.192;2023-04-01T07:20:03;98330.66;;;11.52;100.00
68634;BME280;55625;47.072;22.192;2023-04-01T07:22:39;98320.59;;;11.72;99.63
68634;BME280;55625;47.072;22.192;2023-04-01T07:25:17;98329.84;;;11.87;98.62
68634;BME280;55625;47.072;22.192;2023-04-01T07:27:45;98323.06;;;11.99;97.94
68634;BME280;55625;47.072;22.192;2023-04-01T07:30:17;98320.63;;;12.12;95.22
68634;BME280;55625;47.072;22.192;2023-04-01T07:33:11;98321.63;;;12.09;93.99
68634;BME280;55625;47.072;22.192;2023-04-01T07:36:08;98326.53;;;12.29;94.44
68634;BME280;55625;47.072;22.192;2023-04-01T07:39:06;98325.47;;;12.53;91.48
68634;BME280;55625;47.072;22.192;2023-04-01T07:48:17;98312.66;;;12.89;89.65
68634;BME280;55625;47.072;22.192;2023-04-01T07:51:13;98306.09;;;12.83;90.89
68634;BME280;55625;47.072;22.192;2023-04-01T07:53:50;98303.25;;;12.83;90.76
68634;BME280;55625;47.072;22.192;2023-04-01T07:56:31;98316.19;;;12.84;90.61
68634;BME280;55625;47.072;22.192;2023-04-01T08:07:20;98312.94;;;12.65;91.68
68634;BME280;55625;47.072;22.192;2023-04-01T08:10:06;98310.88;;;12.65;91.09
68634;BME280;55625;47.072;22.192;2023-04-01T08:15:35;98307.47;;;12.61;91.33
68634;BME280;55625;47.072;22.192;2023-04-01T08:28:59;98315.06;;;12.24;92.57
68634;BME280;55625;47.072;22.192;2023-04-01T08:34:27;98310.75;;;12.08;92.15
68634;BME280;55625;47.072;22.192;2023-04-01T08:37:04;98323.41;;;12.07;92.91
68634;BME280;55625;47.072;22.192;2023-04-01T08:39:55;98313.31;;;12.06;92.66
68634;BME280;55625;47.072;22.192;2023-04-01T08:46:19;98328.78;;;11.85;92.80
68634;BME280;55625;47.072;22.192;2023-04-01T08:52:36;98314.50;;;11.79;92.75
68634;BME280;55625;47.072;22.192;2023-04-01T08:56:00;98327.00;;;11.87;93.12
68634;BME280;55625;47.072;22.192;2023-04-01T08:59:27;98320.44;;;11.96;94.80
68634;BME280;55625;47.072;22.192;2023-04-01T09:17:43;98307.50;;;11.95;91.40
68634;BME280;55625;47.072;22.192;2023-04-01T09:29:08;98305.56;;;12.06;90.39
68634;BME280;55625;47.072;22.192;2023-04-01T09:41:35;98299.69;;;12.36;90.52
68634;BME280;55625;47.072;22.192;2023-04-01T09:55:19;98289.16;;;12.42;90.74
68634;BME280;55625;47.072;22.192;2023-04-01T10:03:53;98280.06;;;12.64;90.34
68634;BME280;55625;47.072;22.192;2023-04-01T10:16:03;98264.25;;;13.20;88.72
68634;BME280;55625;47.072;22.192;2023-04-01T10:24:57;98272.25;;;13.59;83.02
68634;BME280;55625;47.072;22.192;2023-04-01T10:30:56;98277.72;;;13.62;83.17
68634;BME280;55625;47.072;22.192;2023-04-01T10:36:54;98270.94;;;14.14;81.26
68634;BME280;55625;47.072;22.192;2023-04-01T11:01:02;98275.91;;;14.24;81.92
68634;BME280;55625;47.072;22.192;2023-04-01T11:34:19;98251.38;;;15.05;72.87
68634;BME280;55625;47.072;22.192;2023-04-01T11:58:53;98244.53;;;15.59;70.94
68634;BME280;55625;47.072;22.192;2023-04-01T12:01:30;98246.59;;;15.52;70.15
68634;BME280;55625;47.072;22.192;2023-04-01T12:13:14;98243.47;;;15.73;68.95
68634;BME280;55625;47.072;22.192;2023-04-01T12:45:30;98248.34;;;15.83;68.53
68634;BME280;55625;47.072;22.192;2023-04-01T12:57:45;98253.69;;;16.15;68.94
68634;BME280;55625;47.072;22.192;2023-04-01T13:00:28;98251.53;;;16.32;68.18
68634;BME280;55625;47.072;22.192;2023-04-01T13:16:53;98255.47;;;16.24;65.74
68634;BME280;55625;47.072;22.192;2023-04-01T13:28:32;98253.59;;;15.74;67.51
68634;BME280;55625;47.072;22.192;2023-04-01T13:37:11;98254.72;;;15.26;68.93
68634;BME280;55625;47.072;22.192;2023-04-01T13:42:51;98259.16;;;15.33;68.34
68634;BME280;55625;47.072;22.192;2023-04-01T13:45:23;98263.84;;;15.13;69.36
68634;BME280;55625;47.072;22.192;2023-04-01T14:03:28;98266.69;;;15.08;70.34
68634;BME280;55625;47.072;22.192;2023-04-01T14:41:13;98263.09;;;14.03;75.85
68634;BME280;55625;47.072;22.192;2023-04-01T14:47:42;98267.81;;;14.12;75.13
68634;BME280;55625;47.072;22.192;2023-04-01T14:50:18;98260.78;;;14.07;75.24
68634;BME280;55625;47.072;22.192;2023-04-01T14:53:28;98264.94;;;14.06;75.95
68634;BME280;55625;47.072;22.192;2023-04-01T14:55:58;98264.91;;;14.01;76.04
68634;BME280;55625;47.072;22.192;2023-04-01T14:58:46;98261.56;;;14.02;75.62
68634;BME280;55625;47.072;22.192;2023-04-01T15:04:20;98265.38;;;13.82;77.02
68634;BME280;55625;47.072;22.192;2023-04-01T15:07:18;98264.56;;;13.76;77.65
68634;BME280;55625;47.072;22.192;2023-04-01T15:10:12;98259.59;;;13.71;77.75
68634;BME280;55625;47.072;22.192;2023-04-01T15:42:34;98272.84;;;13.31;80.57
68634;BME280;55625;47.072;22.192;2023-04-01T16:19:36;98298.75;;;12.70;84.73
68634;BME280;55625;47.072;22.192;2023-04-01T16:22:31;98296.63;;;12.65;85.35
68634;BME280;55625;47.072;22.192;2023-04-01T16:31:09;98298.78;;;12.50;88.16
68634;BME280;55625;47.072;22.192;2023-04-01T16:33:51;98300.59;;;12.48;88.10
68634;BME280;55625;47.072;22.192;2023-04-01T16:36:50;98314.75;;;12.42;88.09
68634;BME280;55625;47.072;22.192;2023-04-01T16:42:43;98314.63;;;12.31;89.27
68634;BME280;55625;47.072;22.192;2023-04-01T16:48:01;98314.00;;;12.21;89.13
68634;BME280;55625;47.072;22.192;2023-04-01T16:54:29;98322.19;;;12.13;89.15
68634;BME280;55625;47.072;22.192;2023-04-01T16:56:45;98320.28;;;12.05;90.36
68634;BME280;55625;47.072;22.192;2023-04-01T16:59:27;98319.66;;;11.95;91.60
68634;BME280;55625;47.072;22.192;2023-04-01T17:02:14;98325.75;;;11.88;91.72
68634;BME280;55625;47.072;22.192;2023-04-01T17:05:05;98334.09;;;11.77;92.29
68634;BME280;55625;47.072;22.192;2023-04-01T17:19:30;98345.75;;;11.44;95.11
68634;BME280;55625;47.072;22.192;2023-04-01T17:22:40;98344.41;;;11.39;95.98
68634;BME280;55625;47.072;22.192;2023-04-01T17:59:16;98384.38;;;10.77;94.37
68634;BME280;55625;47.072;22.192;2023-04-01T18:15:06;98400.03;;;10.34;95.99
68634;BME280;55625;47.072;22.192;2023-04-01T18:27:15;98411.84;;;10.08;97.87
68634;BME280;55625;47.072;22.192;2023-04-01T18:30:07;98407.81;;;10.00;98.09
68634;BME280;55625;47.072;22.192;2023-04-01T18:32:55;98401.72;;;9.92;97.98
68634;BME280;55625;47.072;22.192;2023-04-01T18:40:34;98413.75;;;9.78;98.44
68634;BME280;55625;47.072;22.192;2023-04-01T18:49:21;98415.16;;;9.50;100.00
68634;BME280;55625;47.072;22.192;2023-04-01T18:51:58;98418.81;;;9.41;100.00
68634;BME280;55625;47.072;22.192;2023-04-01T18:55:14;98415.53;;;9.33;100.00
68634;BME280;55625;47.072;22.192;2023-04-01T19:06:49;98421.09;;;9.10;100.00
68634;BME280;55625;47.072;22.192;2023-04-01T19:21:02;98427.44;;;8.86;100.00
68634;BME280;55625;47.072;22.192;2023-04-01T19:26:44;98435.94;;;8.77;100.00
68634;BME280;55625;47.072;22.192;2023-04-01T19:29:40;98443.03;;;8.73;100.00
68634;BME280;55625;47.072;22.192;2023-04-01T19:38:26;98453.53;;;8.54;100.00
68634;BME280;55625;47.072;22.192;2023-04-01T19:52:35;98461.53;;;8.28;100.00
68634;BME280;55625;47.072;22.192;2023-04-01T19:55:33;98457.75;;;8.31;100.00
68634;BME280;55625;47.072;22.192;2023-04-01T20:00:59;98464.84;;;8.35;100.00
68634;BME280;55625;47.072;22.192;2023-04-01T20:06:41;98470.50;;;8.45;100.00
68634;BME280;55625;47.072;22.192;2023-04-01T20:09:44;98474.91;;;8.46;100.00
68634;BME280;55625;47.072;22.192;2023-04-01T20:15:44;98470.03;;;8.46;100.00
68634;BME280;55625;47.072;22.192;2023-04-01T20:21:37;98469.41;;;8.42;100.00
68634;BME280;55625;47.072;22.192;2023-04-01T20:24:30;98471.59;;;8.38;100.00
68634;BME280;55625;47.072;22.192;2023-04-01T20:32:42;98474.13;;;8.36;100.00
68634;BME280;55625;47.072;22.192;2023-04-01T20:42:05;98471.13;;;8.39;100.00
68634;BME280;55625;47.072;22.192;2023-04-01T20:47:58;98483.53;;;8.42;100.00
68634;BME280;55625;47.072;22.192;2023-04-01T20:50:49;98478.34;;;8.40;100.00
68634;BME280;55625;47.072;22.192;2023-04-01T20:56:23;98487.47;;;8.45;100.00
68634;BME280;55625;47.072;22.192;2023-04-01T21:00:16;98483.06;;;8.44;100.00
68634;BME280;55625;47.072;22.192;2023-04-01T21:14:56;98495.78;;;8.48;100.00
68634;BME280;55625;47.072;22.192;2023-04-01T21:26:35;98503.97;;;8.46;100.00
68634;BME280;55625;47.072;22.192;2023-04-01T21:50:27;98517.00;;;8.44;100.00
68634;BME280;55625;47.072;22.192;2023-04-01T22:08:02;98524.53;;;8.37;100.00
68634;BME280;55625;47.072;22.192;2023-04-01T22:10:46;98530.19;;;8.37;100.00
68634;BME280;55625;47.072;22.192;2023-04-01T22:13:26;98526.88;;;8.39;100.00
68634;BME280;55625;47.072;22.192;2023-04-01T22:19:26;98534.91;;;8.40;100.00
68634;BME280;55625;47.072;22.192;2023-04-01T22:22:31;98533.31;;;8.39;100.00
68634;BME280;55625;47.072;22.192;2023-04-01T22:25:21;98533.00;;;8.37;100.00
68634;BME280;55625;47.072;22.192;2023-04-01T22:28:07;98530.97;;;8.38;100.00
68634;BME280;55625;47.072;22.192;2023-04-01T22:30:44;98537.09;;;8.36;100.00
68634;BME280;55625;47.072;22.192;2023-04-01T22:39:41;98542.09;;;8.32;100.00
68634;BME280;55625;47.072;22.192;2023-04-01T22:42:56;98546.16;;;8.31;100.00
68634;BME280;55625;47.072;22.192;2023-04-01T22:48:22;98551.50;;;8.29;100.00
68634;BME280;55625;47.072;22.192;2023-04-01T22:53:59;98562.34;;;8.31;100.00
68634;BME280;55625;47.072;22.192;2023-04-01T22:56:43;98566.28;;;8.33;100.00
68634;BME280;55625;47.072;22.192;2023-04-01T22:59:52;98560.19;;;8.35;100.00
68634;BME280;55625;47.072;22.192;2023-04-01T23:02:30;98561.88;;;8.32;100.00
68634;BME280;55625;47.072;22.192;2023-04-01T23:05:00;98565.94;;;8.31;100.00
68634;BME280;55625;47.072;22.192;2023-04-01T23:10:31;98562.03;;;8.29;100.00
68634;BME280;55625;47.072;22.192;2023-04-01T23:13:15;98568.59;;;8.26;100.00
68634;BME280;55625;47.072;22.192;2023-04-01T23:15:42;98575.50;;;8.25;100.00
68634;BME280;55625;47.072;22.192;2023-04-01T23:24:16;98571.09;;;8.24;100.00
68634;BME280;55625;47.072;22.192;2023-04-01T23:27:36;98568.25;;;8.24;100.00
68634;BME280;55625;47.072;22.192;2023-04-01T23:30:46;98575.03;;;8.26;100.00
68634;BME280;55625;47.072;22.192;2023-04-01T23:33:20;98583.50;;;8.26;100.00
68634;BME280;55625;47.072;22.192;2023-04-01T23:36:15;98585.88;;;8.28;100.00
68634;BME280;55625;47.072;22.192;2023-04-01T23:38:42;98583.84;;;8.28;100.00
68634;BME280;55625;47.072;22.192;2023-04-01T23:41:30;98573.31;;;8.29;100.00
68634;BME280;55625;47.072;22.192;2023-04-01T23:44:02;98579.75;;;8.29;100.00
68634;BME280;55625;47.072;22.192;2023-04-01T23:46:31;98577.41;;;8.28;100.00
68634;BME280;55625;47.072;22.192;2023-04-01T23:48:59;98578.97;;;8.29;100.00
68634;BME280;55625;47.072;22.192;2023-04-01T23:51:29;98581.34;;;8.30;100.00
68634;BME280;55625;47.072;22.192;2023-04-01T23:56:48;98593.59;;;8.27;100.00
68634;BME280;55625;47.072;22.192;2023-04-01T23:59:24;98587.94;;;8.27;100.00
